createdAt,value
2019-05-05T00:00:46.480Z,90.91
2019-05-05T00:01:46.748Z,91.09
2019-05-05T00:02:46.987Z,91.19
2019-05-05T00:03:47.091Z,91.57
2019-05-05T00:04:47.254Z,91.47
2019-05-05T00:05:47.301Z,91.38
2019-05-05T00:06:47.513Z,91.66
2019-05-05T00:07:47.728Z,92.33
2019-05-05T00:08:47.907Z,91.19
2019-05-05T00:09:48.041Z,91.28
2019-05-05T00:10:48.186Z,91.38
2019-05-05T00:11:48.519Z,91.47
2019-05-05T00:12:48.492Z,91.38
2019-05-05T00:13:48.790Z,91.00
2019-05-05T00:14:48.889Z,90.81
2019-05-05T00:15:49.094Z,91.00
2019-05-05T00:16:49.214Z,91.38
2019-05-05T00:17:49.345Z,90.34
2019-05-05T00:18:49.416Z,90.53
2019-05-05T00:19:49.697Z,90.48
2019-05-05T00:20:49.674Z,90.86
2019-05-05T00:21:50.342Z,90.86
2019-05-05T00:22:50.489Z,90.95
2019-05-05T00:23:50.904Z,90.77
2019-05-05T00:24:50.918Z,92.09
2019-05-05T00:25:50.363Z,92.09
2019-05-05T00:26:50.627Z,92.28
2019-05-05T00:27:50.798Z,92.66
2019-05-05T00:28:50.980Z,92.76
2019-05-05T00:29:51.168Z,92.47
2019-05-05T00:30:51.217Z,92.76
2019-05-05T00:31:51.425Z,92.66
2019-05-05T00:32:51.577Z,92.76
2019-05-05T00:33:51.756Z,92.85
2019-05-05T00:34:51.939Z,93.70
2019-05-05T00:35:54.326Z,93.65
2019-05-05T00:36:52.330Z,93.42
2019-05-05T00:37:54.318Z,93.75
2019-05-05T00:38:52.565Z,93.56
2019-05-05T00:39:54.329Z,93.94
2019-05-05T00:40:54.830Z,93.80
2019-05-05T00:41:55.334Z,93.42
2019-05-05T00:42:54.688Z,93.18
2019-05-05T00:43:55.215Z,92.99
2019-05-05T00:44:54.958Z,92.66
2019-05-05T00:45:55.549Z,93.18
2019-05-05T00:46:55.024Z,92.90
2019-05-05T00:47:54.455Z,92.80
2019-05-05T00:48:55.050Z,92.90
2019-05-05T00:49:56.141Z,92.90
2019-05-05T00:50:55.605Z,92.71
2019-05-05T00:51:54.702Z,91.95
2019-05-05T00:52:55.146Z,92.42
2019-05-05T00:53:55.439Z,92.14
2019-05-05T00:54:55.581Z,91.95
2019-05-05T00:55:55.605Z,91.95
2019-05-05T00:56:55.227Z,92.04
2019-05-05T00:57:55.377Z,91.95
2019-05-05T00:58:55.563Z,91.76
2019-05-05T00:59:55.678Z,91.76
2019-05-05T01:00:55.833Z,91.95
2019-05-05T01:01:55.786Z,91.85
2019-05-05T01:02:56.118Z,91.57
2019-05-05T01:03:56.321Z,91.47
2019-05-05T01:04:56.586Z,91.85
2019-05-05T01:05:56.724Z,91.19
2019-05-05T01:06:56.840Z,91.28
2019-05-05T01:07:57.089Z,91.66
2019-05-05T01:08:57.205Z,91.28
2019-05-05T01:09:57.152Z,92.14
2019-05-05T01:10:57.447Z,91.95
2019-05-05T01:11:57.687Z,91.85
2019-05-05T01:12:57.724Z,92.04
2019-05-05T01:13:58.328Z,91.95
2019-05-05T01:14:59.672Z,91.85
2019-05-05T01:15:58.179Z,91.81
2019-05-05T01:16:58.306Z,92.04
2019-05-05T01:17:58.332Z,91.62
2019-05-05T01:18:58.765Z,91.14
2019-05-05T01:20:03.324Z,92.04
2019-05-05T01:20:58.779Z,91.71
2019-05-05T01:21:59.233Z,91.62
2019-05-05T01:22:59.425Z,92.00
2019-05-05T01:23:59.358Z,91.62
2019-05-05T01:24:59.677Z,92.19
2019-05-05T01:25:59.641Z,92.28
2019-05-05T01:26:59.804Z,91.81
2019-05-05T01:27:59.976Z,92.00
2019-05-05T01:29:00.145Z,92.28
2019-05-05T01:30:00.311Z,91.71
2019-05-05T01:31:00.478Z,91.71
2019-05-05T01:32:00.649Z,91.43
2019-05-05T01:33:00.814Z,92.09
2019-05-05T01:34:00.984Z,92.28
2019-05-05T01:35:01.156Z,92.09
2019-05-05T01:36:01.321Z,91.71
2019-05-05T01:37:01.487Z,91.90
2019-05-05T01:38:01.663Z,92.00
2019-05-05T01:39:01.827Z,92.00
2019-05-05T01:40:02.025Z,91.71
2019-05-05T01:41:04.118Z,91.90
2019-05-05T01:42:02.366Z,91.90
2019-05-05T01:43:02.532Z,92.00
2019-05-05T01:44:04.689Z,92.00
2019-05-05T01:45:04.549Z,92.57
2019-05-05T01:46:04.909Z,92.66
2019-05-05T01:47:05.233Z,92.28
2019-05-05T01:48:04.901Z,92.28
2019-05-05T01:49:05.397Z,92.19
2019-05-05T01:50:15.265Z,92.66
2019-05-05T01:51:04.978Z,92.66
2019-05-05T01:52:04.452Z,92.57
2019-05-05T01:53:04.775Z,93.04
2019-05-05T01:54:05.202Z,92.85
2019-05-05T01:55:05.263Z,92.38
2019-05-05T01:56:04.977Z,92.57
2019-05-05T01:57:05.432Z,92.85
2019-05-05T01:58:05.059Z,92.85
2019-05-05T01:59:05.400Z,92.94
2019-05-05T02:00:05.414Z,92.66
2019-05-05T02:01:05.584Z,92.57
2019-05-05T02:02:05.754Z,92.47
2019-05-05T02:03:05.916Z,92.09
2019-05-05T02:04:06.079Z,91.90
2019-05-05T02:05:06.254Z,91.52
2019-05-05T02:06:06.424Z,91.62
2019-05-05T02:07:06.589Z,92.09
2019-05-05T02:08:06.755Z,92.94
2019-05-05T02:09:06.925Z,92.80
2019-05-05T02:10:07.094Z,92.90
2019-05-05T02:11:07.266Z,92.94
2019-05-05T02:12:07.430Z,92.33
2019-05-05T02:13:07.599Z,92.09
2019-05-05T02:14:07.764Z,92.09
2019-05-05T02:15:07.928Z,92.24
2019-05-05T02:16:08.100Z,92.24
2019-05-05T02:17:10.398Z,92.57
2019-05-05T02:18:08.365Z,92.99
2019-05-05T02:19:08.541Z,92.52
2019-05-05T02:20:08.709Z,92.71
2019-05-05T02:21:08.878Z,93.18
2019-05-05T02:22:09.041Z,93.08
2019-05-05T02:23:09.212Z,93.37
2019-05-05T02:24:09.391Z,93.56
2019-05-05T02:25:09.551Z,93.56
2019-05-05T02:26:09.727Z,93.84
2019-05-05T02:27:10.451Z,93.13
2019-05-05T02:28:10.066Z,92.80
2019-05-05T02:29:10.226Z,92.71
2019-05-05T02:30:10.399Z,92.99
2019-05-05T02:31:10.557Z,92.99
2019-05-05T02:32:10.721Z,92.61
2019-05-05T02:33:10.887Z,92.71
2019-05-05T02:34:11.053Z,92.61
2019-05-05T02:35:11.217Z,92.43
2019-05-05T02:36:11.383Z,92.43
2019-05-05T02:37:11.560Z,92.94
2019-05-05T02:38:11.738Z,92.90
2019-05-05T02:39:11.909Z,92.80
2019-05-05T02:40:12.080Z,92.38
2019-05-05T02:41:15.283Z,92.66
2019-05-05T02:42:14.632Z,92.33
2019-05-05T02:43:15.131Z,92.90
2019-05-05T02:44:15.454Z,93.04
2019-05-05T02:45:15.297Z,93.13
2019-05-05T02:46:14.368Z,93.80
2019-05-05T02:47:15.514Z,94.27
2019-05-05T02:48:15.302Z,94.37
2019-05-05T02:49:15.093Z,94.27
2019-05-05T02:50:15.588Z,94.46
2019-05-05T02:51:15.123Z,94.08
2019-05-05T02:52:15.129Z,93.99
2019-05-05T02:53:14.350Z,94.56
2019-05-05T02:54:14.421Z,94.37
2019-05-05T02:55:14.760Z,94.37
2019-05-05T02:56:14.759Z,94.65
2019-05-05T02:57:14.927Z,94.37
2019-05-05T02:58:15.087Z,94.46
2019-05-05T02:59:15.257Z,94.37
2019-05-05T03:00:15.423Z,94.46
2019-05-05T03:01:15.594Z,94.37
2019-05-05T03:02:15.761Z,94.65
2019-05-05T03:03:15.927Z,93.65
2019-05-05T03:04:16.099Z,92.99
2019-05-05T03:05:16.261Z,92.61
2019-05-05T03:06:16.430Z,92.28
2019-05-05T03:07:16.623Z,91.86
2019-05-05T03:08:16.796Z,91.10
2019-05-05T03:09:16.969Z,91.86
2019-05-05T03:10:17.132Z,91.76
2019-05-05T03:11:17.304Z,91.67
2019-05-05T03:12:17.477Z,92.05
2019-05-05T03:13:17.644Z,92.24
2019-05-05T03:14:17.828Z,92.05
2019-05-05T03:15:17.984Z,92.57
2019-05-05T03:16:18.151Z,92.80
2019-05-05T03:17:18.313Z,92.61
2019-05-05T03:18:18.487Z,92.71
2019-05-05T03:19:18.654Z,92.80
2019-05-05T03:20:18.824Z,92.33
2019-05-05T03:21:18.989Z,93.08
2019-05-05T03:22:19.489Z,92.99
2019-05-05T03:23:19.557Z,93.27
2019-05-05T03:24:19.436Z,93.65
2019-05-05T03:25:19.605Z,93.65
2019-05-05T03:26:19.773Z,93.37
2019-05-05T03:27:19.952Z,93.37
2019-05-05T03:28:20.112Z,93.37
2019-05-05T03:29:20.282Z,93.37
2019-05-05T03:30:20.466Z,93.37
2019-05-05T03:31:20.619Z,93.46
2019-05-05T03:32:20.798Z,94.42
2019-05-05T03:33:20.956Z,94.32
2019-05-05T03:34:21.124Z,94.23
2019-05-05T03:35:21.286Z,94.32
2019-05-05T03:36:21.477Z,93.84
2019-05-05T03:37:21.659Z,93.56
2019-05-05T03:38:21.822Z,93.37
2019-05-05T03:39:23.555Z,93.08
2019-05-05T03:40:23.872Z,93.18
2019-05-05T03:41:23.876Z,93.08
2019-05-05T03:42:24.376Z,93.08
2019-05-05T03:43:23.689Z,92.99
2019-05-05T03:44:24.150Z,92.43
2019-05-05T03:45:23.473Z,92.90
2019-05-05T03:46:23.801Z,92.80
2019-05-05T03:47:24.079Z,92.61
2019-05-05T03:48:24.119Z,92.52
2019-05-05T03:49:24.364Z,92.99
2019-05-05T03:50:23.889Z,93.08
2019-05-05T03:51:24.326Z,93.37
2019-05-05T03:52:24.556Z,93.65
2019-05-05T03:53:24.698Z,93.46
2019-05-05T03:54:24.489Z,93.56
2019-05-05T03:55:24.653Z,93.37
2019-05-05T03:56:24.823Z,93.75
2019-05-05T03:57:24.985Z,93.46
2019-05-05T03:58:25.153Z,93.18
2019-05-05T03:59:25.325Z,93.37
2019-05-05T04:00:25.492Z,93.37
2019-05-05T04:01:25.661Z,93.94
2019-05-05T04:02:25.833Z,93.75
2019-05-05T04:03:26.003Z,93.37
2019-05-05T04:04:26.158Z,93.37
2019-05-05T04:05:26.328Z,93.08
2019-05-05T04:06:26.508Z,92.80
2019-05-05T04:07:26.676Z,92.71
2019-05-05T04:08:26.843Z,92.90
2019-05-05T04:09:27.010Z,92.61
2019-05-05T04:10:27.178Z,92.43
2019-05-05T04:11:27.347Z,92.05
2019-05-05T04:12:27.516Z,92.24
2019-05-05T04:13:27.682Z,91.95
2019-05-05T04:14:27.851Z,92.43
2019-05-05T04:15:28.019Z,92.05
2019-05-05T04:16:28.191Z,92.24
2019-05-05T04:17:28.354Z,92.14
2019-05-05T04:18:28.521Z,92.33
2019-05-05T04:19:28.688Z,92.05
2019-05-05T04:20:28.853Z,91.95
2019-05-05T04:21:33.571Z,92.05
2019-05-05T04:22:29.190Z,92.24
2019-05-05T04:23:29.358Z,92.24
2019-05-05T04:24:29.529Z,92.24
2019-05-05T04:25:29.687Z,92.14
2019-05-05T04:26:29.859Z,92.52
2019-05-05T04:27:30.022Z,92.61
2019-05-05T04:28:30.195Z,92.80
2019-05-05T04:29:34.513Z,92.52
2019-05-05T04:30:33.689Z,92.61
2019-05-05T04:31:34.485Z,92.38
2019-05-05T04:32:31.723Z,92.66
2019-05-05T04:33:34.045Z,92.57
2019-05-05T04:34:34.638Z,92.61
2019-05-05T04:35:33.970Z,92.43
2019-05-05T04:36:34.037Z,92.57
2019-05-05T04:37:34.135Z,92.61
2019-05-05T04:38:34.773Z,92.80
2019-05-05T04:39:34.329Z,92.47
2019-05-05T04:40:34.861Z,92.61
2019-05-05T04:41:33.759Z,92.94
2019-05-05T04:42:33.660Z,92.85
2019-05-05T04:43:33.847Z,92.66
2019-05-05T04:44:34.697Z,92.76
2019-05-05T04:45:34.684Z,92.57
2019-05-05T04:46:33.807Z,92.85
2019-05-05T04:47:34.265Z,92.66
2019-05-05T04:48:34.560Z,92.94
2019-05-05T04:49:34.003Z,92.76
2019-05-05T04:50:34.514Z,92.66
2019-05-05T04:51:46.898Z,92.85
2019-05-05T04:52:36.272Z,92.94
2019-05-05T04:53:36.498Z,92.38
2019-05-05T04:54:36.001Z,91.90
2019-05-05T04:55:36.033Z,92.19
2019-05-05T04:56:37.191Z,92.09
2019-05-05T04:57:36.211Z,91.90
2019-05-05T04:58:37.570Z,91.52
2019-05-05T04:59:36.902Z,91.43
2019-05-05T05:00:36.248Z,91.24
2019-05-05T05:01:36.789Z,91.33
2019-05-05T05:02:36.901Z,91.90
2019-05-05T05:03:37.744Z,91.43
2019-05-05T05:04:36.742Z,92.09
2019-05-05T05:05:35.971Z,91.90
2019-05-05T05:06:36.140Z,92.00
2019-05-05T05:07:36.318Z,91.52
2019-05-05T05:08:36.505Z,91.71
2019-05-05T05:09:36.666Z,91.71
2019-05-05T05:10:36.825Z,91.33
2019-05-05T05:11:36.988Z,91.14
2019-05-05T05:12:37.163Z,90.95
2019-05-05T05:13:37.329Z,90.86
2019-05-05T05:14:37.488Z,90.86
2019-05-05T05:15:37.668Z,90.67
2019-05-05T05:16:37.821Z,90.58
2019-05-05T05:17:37.992Z,90.58
2019-05-05T05:18:38.158Z,90.58
2019-05-05T05:19:38.330Z,90.29
2019-05-05T05:20:38.499Z,90.39
2019-05-05T05:21:38.661Z,90.10
2019-05-05T05:22:39.849Z,90.58
2019-05-05T05:23:39.002Z,90.62
2019-05-05T05:24:39.171Z,89.58
2019-05-05T05:25:39.337Z,89.86
2019-05-05T05:26:39.499Z,89.86
2019-05-05T05:27:39.668Z,90.72
2019-05-05T05:28:45.024Z,90.05
2019-05-05T05:29:41.438Z,90.05
2019-05-05T05:30:41.351Z,89.67
2019-05-05T05:31:43.714Z,89.01
2019-05-05T05:32:44.367Z,88.54
2019-05-05T05:33:43.511Z,88.44
2019-05-05T05:34:43.566Z,88.16
2019-05-05T05:35:43.601Z,88.06
2019-05-05T05:36:44.193Z,87.68
2019-05-05T05:37:41.307Z,87.35
2019-05-05T05:38:43.636Z,87.54
2019-05-05T05:39:41.636Z,87.16
2019-05-05T05:40:41.783Z,86.87
2019-05-05T05:41:43.557Z,86.97
2019-05-05T05:42:47.883Z,86.78
2019-05-05T05:43:44.399Z,86.68
2019-05-05T05:44:45.358Z,86.97
2019-05-05T05:45:43.671Z,86.78
2019-05-05T05:46:43.889Z,86.49
2019-05-05T05:47:44.447Z,86.40
2019-05-05T05:48:43.475Z,86.40
2019-05-05T05:49:43.969Z,86.59
2019-05-05T05:50:46.603Z,87.06
2019-05-05T05:51:45.481Z,86.11
2019-05-05T05:52:45.839Z,85.59
2019-05-05T05:53:44.021Z,85.21
2019-05-05T05:54:44.289Z,84.17
2019-05-05T05:55:44.775Z,84.36
2019-05-05T05:56:44.750Z,83.88
2019-05-05T05:57:44.585Z,83.78
2019-05-05T05:58:44.763Z,83.69
2019-05-05T05:59:44.929Z,83.03
2019-05-05T06:00:45.098Z,83.26
2019-05-05T06:01:45.272Z,83.31
2019-05-05T06:02:45.437Z,82.97
2019-05-05T06:03:45.604Z,82.78
2019-05-05T06:04:45.772Z,81.84
2019-05-05T06:05:45.937Z,82.12
2019-05-05T06:06:47.975Z,81.84
2019-05-05T06:07:46.230Z,81.65
2019-05-05T06:08:46.393Z,81.84
2019-05-05T06:09:46.566Z,81.26
2019-05-05T06:10:46.738Z,81.55
2019-05-05T06:11:46.913Z,81.97
2019-05-05T06:12:47.067Z,81.93
2019-05-05T06:13:47.642Z,81.87
2019-05-05T06:14:47.423Z,80.83
2019-05-05T06:15:47.588Z,80.74
2019-05-05T06:16:47.747Z,80.26
2019-05-05T06:17:47.927Z,80.35
2019-05-05T06:18:48.099Z,79.97
2019-05-05T06:19:48.269Z,79.97
2019-05-05T06:20:48.435Z,80.07
2019-05-05T06:21:48.606Z,79.97
2019-05-05T06:22:48.780Z,80.16
2019-05-05T06:23:48.977Z,78.97
2019-05-05T06:24:49.138Z,79.06
2019-05-05T06:25:49.307Z,78.59
2019-05-05T06:26:49.477Z,79.25
2019-05-05T06:27:49.628Z,78.97
2019-05-05T06:28:49.809Z,77.92
2019-05-05T06:29:49.970Z,77.64
2019-05-05T06:30:50.142Z,77.30
2019-05-05T06:31:50.310Z,77.77
2019-05-05T06:32:50.486Z,77.77
2019-05-05T06:33:50.648Z,76.82
2019-05-05T06:34:50.811Z,76.25
2019-05-05T06:35:50.983Z,76.35
2019-05-05T06:36:51.153Z,76.73
2019-05-05T06:37:51.315Z,76.44
2019-05-05T06:38:51.477Z,76.35
2019-05-05T06:39:51.713Z,76.44
2019-05-05T06:40:53.605Z,75.78
2019-05-05T06:41:53.815Z,75.96
2019-05-05T06:42:53.908Z,76.63
2019-05-05T06:43:54.235Z,75.72
2019-05-05T06:44:53.529Z,75.72
2019-05-05T06:45:53.580Z,75.05
2019-05-05T06:46:53.792Z,74.58
2019-05-05T06:47:53.696Z,74.29
2019-05-05T06:48:53.890Z,74.29
2019-05-05T06:49:54.212Z,74.20
2019-05-05T06:50:54.417Z,74.24
2019-05-05T06:51:54.704Z,74.14
2019-05-05T06:52:53.772Z,73.85
2019-05-05T06:53:54.107Z,73.47
2019-05-05T06:54:54.351Z,73.38
2019-05-05T06:55:54.383Z,73.61
2019-05-05T06:56:54.486Z,73.13
2019-05-05T06:57:54.652Z,71.55
2019-05-05T06:58:54.825Z,70.31
2019-05-05T06:59:54.993Z,69.93
2019-05-05T07:00:55.172Z,70.25
2019-05-05T07:01:55.322Z,67.77
2019-05-05T07:02:55.499Z,67.29
2019-05-05T07:03:55.661Z,66.44
2019-05-05T07:04:55.826Z,66.56
2019-05-05T07:05:56.007Z,65.13
2019-05-05T07:06:57.211Z,66.47
2019-05-05T07:07:56.313Z,65.83
2019-05-05T07:08:56.491Z,65.74
2019-05-05T07:09:56.696Z,63.48
2019-05-05T07:10:56.840Z,63.29
2019-05-05T07:11:57.021Z,62.27
2019-05-05T07:12:57.185Z,59.72
2019-05-05T07:13:57.354Z,59.53
2019-05-05T07:14:57.519Z,59.66
2019-05-05T07:15:58.143Z,58.51
2019-05-05T07:16:57.878Z,57.29
2019-05-05T07:17:59.619Z,55.41
2019-05-05T07:18:58.870Z,55.98
2019-05-05T07:19:58.404Z,55.15
2019-05-05T07:20:59.209Z,53.26
2019-05-05T07:21:58.770Z,53.26
2019-05-05T07:23:02.384Z,52.42
2019-05-05T07:23:59.729Z,50.43
2019-05-05T07:24:59.970Z,49.12
2019-05-05T07:25:59.986Z,49.88
2019-05-05T07:26:59.879Z,49.43
2019-05-05T07:27:59.866Z,47.22
2019-05-05T07:29:00.012Z,47.71
2019-05-05T07:30:00.071Z,47.97
2019-05-05T07:31:00.359Z,49.10
2019-05-05T07:32:00.496Z,49.48
2019-05-05T07:33:00.686Z,47.87
2019-05-05T07:34:00.865Z,45.21
2019-05-05T07:35:01.065Z,43.38
2019-05-05T07:36:03.970Z,41.89
2019-05-05T07:37:03.340Z,42.40
2019-05-05T07:38:01.572Z,42.57
2019-05-05T07:39:03.698Z,43.57
2019-05-05T07:40:04.248Z,44.17
2019-05-05T07:41:03.723Z,43.71
2019-05-05T07:42:04.425Z,42.77
2019-05-05T07:43:04.365Z,43.62
2019-05-05T07:44:04.622Z,43.38
2019-05-05T07:45:05.486Z,42.52
2019-05-05T07:46:04.429Z,40.12
2019-05-05T07:47:03.616Z,40.05
2019-05-05T07:48:04.786Z,40.73
2019-05-05T07:49:03.971Z,38.74
2019-05-05T07:50:04.198Z,39.01
2019-05-05T07:51:05.271Z,39.03
2019-05-05T07:52:04.164Z,38.37
2019-05-05T07:53:13.856Z,37.20
2019-05-05T07:54:04.373Z,37.02
2019-05-05T07:55:04.550Z,36.74
2019-05-05T07:56:07.514Z,36.18
2019-05-05T07:57:04.901Z,35.33
2019-05-05T07:58:05.077Z,33.73
2019-05-05T07:59:05.328Z,32.47
2019-05-05T08:00:05.544Z,32.57
2019-05-05T08:01:05.646Z,32.86
2019-05-05T08:02:05.820Z,32.78
2019-05-05T08:03:05.999Z,32.89
2019-05-05T08:04:06.178Z,32.60
2019-05-05T08:05:06.390Z,31.17
2019-05-05T08:06:07.275Z,31.27
2019-05-05T08:07:07.133Z,32.91
2019-05-05T08:08:06.932Z,30.79
2019-05-05T08:09:07.148Z,30.48
2019-05-05T08:10:07.333Z,31.33
2019-05-05T08:11:07.793Z,30.88
2019-05-05T08:12:07.731Z,31.14
2019-05-05T08:13:07.926Z,31.27
2019-05-05T08:14:08.150Z,32.28
2019-05-05T08:15:08.374Z,33.69
2019-05-05T08:16:08.444Z,35.61
2019-05-05T08:17:10.503Z,37.05
2019-05-05T08:18:10.179Z,35.43
2019-05-05T08:19:08.985Z,36.22
2019-05-05T08:20:09.163Z,35.72
2019-05-05T08:21:09.358Z,36.93
2019-05-05T08:22:09.507Z,38.34
2019-05-05T08:23:09.696Z,38.79
2019-05-05T08:24:09.870Z,39.35
2019-05-05T08:25:10.047Z,39.20
2019-05-05T08:26:10.226Z,38.47
2019-05-05T08:27:11.488Z,37.28
2019-05-05T08:28:10.719Z,37.34
2019-05-05T08:29:10.718Z,39.33
2019-05-05T08:30:10.897Z,39.87
2019-05-05T08:31:11.065Z,38.83
2019-05-05T08:32:13.470Z,38.01
2019-05-05T08:33:11.430Z,35.53
2019-05-05T08:34:11.630Z,33.62
2019-05-05T08:35:11.816Z,32.49
2019-05-05T08:36:11.983Z,32.41
2019-05-05T08:37:14.492Z,31.46
2019-05-05T08:38:13.823Z,33.37
2019-05-05T08:39:14.265Z,33.02
2019-05-05T08:40:14.673Z,33.81
2019-05-05T08:41:13.885Z,33.79
2019-05-05T08:42:14.433Z,34.43
2019-05-05T08:43:13.856Z,35.06
2019-05-05T08:44:14.267Z,36.40
2019-05-05T08:45:13.950Z,35.89
2019-05-05T08:46:14.457Z,35.88
2019-05-05T08:47:14.042Z,36.84
2019-05-05T08:48:14.358Z,36.13
2019-05-05T08:49:14.341Z,34.43
2019-05-05T08:50:14.509Z,33.69
2019-05-05T08:51:14.691Z,31.57
2019-05-05T08:52:14.862Z,30.55
2019-05-05T08:53:15.030Z,29.98
2019-05-05T08:54:15.216Z,28.04
2019-05-05T08:55:15.749Z,27.37
2019-05-05T08:56:15.533Z,27.39
2019-05-05T08:57:15.714Z,27.22
2019-05-05T08:58:15.899Z,27.40
2019-05-05T08:59:16.086Z,27.23
2019-05-05T09:00:16.283Z,26.76
2019-05-05T09:01:16.456Z,25.42
2019-05-05T09:02:16.628Z,24.56
2019-05-05T09:03:16.812Z,24.57
2019-05-05T09:04:17.030Z,26.12
2019-05-05T09:05:17.163Z,24.19
2019-05-05T09:06:17.349Z,23.16
2019-05-05T09:07:17.571Z,23.93
2019-05-05T09:08:17.741Z,23.80
2019-05-05T09:09:17.914Z,24.54
2019-05-05T09:10:18.089Z,26.37
2019-05-05T09:11:18.272Z,27.15
2019-05-05T09:12:18.444Z,26.25
2019-05-05T09:13:18.632Z,27.94
2019-05-05T09:14:18.807Z,28.49
2019-05-05T09:15:18.991Z,28.27
2019-05-05T09:16:19.169Z,28.82
2019-05-05T09:17:19.494Z,29.85
2019-05-05T09:18:19.486Z,30.54
2019-05-05T09:19:19.657Z,30.60
2019-05-05T09:20:19.882Z,28.51
2019-05-05T09:21:20.014Z,26.40
2019-05-05T09:22:20.196Z,26.64
2019-05-05T09:23:20.369Z,26.56
2019-05-05T09:24:20.550Z,24.76
2019-05-05T09:25:20.731Z,23.58
2019-05-05T09:26:20.906Z,24.30
2019-05-05T09:27:21.079Z,25.52
2019-05-05T09:28:21.259Z,26.45
2019-05-05T09:29:21.437Z,28.45
2019-05-05T09:30:21.617Z,31.23
2019-05-05T09:31:23.867Z,32.25
2019-05-05T09:32:24.144Z,32.33
2019-05-05T09:33:22.150Z,33.47
2019-05-05T09:34:24.012Z,34.88
2019-05-05T09:35:24.037Z,35.44
2019-05-05T09:36:24.322Z,36.40
2019-05-05T09:37:24.658Z,37.05
2019-05-05T09:38:23.900Z,36.67
2019-05-05T09:39:23.987Z,37.72
2019-05-05T09:40:24.203Z,37.90
2019-05-05T09:41:23.812Z,37.24
2019-05-05T09:42:23.709Z,37.15
2019-05-05T09:43:24.102Z,36.44
2019-05-05T09:44:24.242Z,35.36
2019-05-05T09:45:24.472Z,34.87
2019-05-05T09:46:24.338Z,34.20
2019-05-05T09:47:24.510Z,34.29
2019-05-05T09:48:24.686Z,34.22
2019-05-05T09:49:24.860Z,34.41
2019-05-05T09:50:25.039Z,33.19
2019-05-05T09:51:25.212Z,32.76
2019-05-05T09:52:25.393Z,32.46
2019-05-05T09:53:27.357Z,33.21
2019-05-05T09:54:25.786Z,33.86
2019-05-05T09:55:26.129Z,34.81
2019-05-05T09:56:26.171Z,35.48
2019-05-05T09:57:26.408Z,36.42
2019-05-05T09:58:26.559Z,36.11
2019-05-05T09:59:26.717Z,36.02
2019-05-05T10:00:26.917Z,37.24
2019-05-05T10:01:27.086Z,38.20
2019-05-05T10:02:27.276Z,38.34
2019-05-05T10:03:27.427Z,35.82
2019-05-05T10:04:27.598Z,33.85
2019-05-05T10:05:27.771Z,30.32
2019-05-05T10:06:27.939Z,29.31
2019-05-05T10:07:28.114Z,27.86
2019-05-05T10:08:28.287Z,28.72
2019-05-05T10:09:28.471Z,28.88
2019-05-05T10:10:28.643Z,30.29
2019-05-05T10:11:28.818Z,30.52
2019-05-05T10:12:28.982Z,30.02
2019-05-05T10:13:29.161Z,30.10
2019-05-05T10:14:29.332Z,29.49
2019-05-05T10:15:29.516Z,30.63
2019-05-05T10:16:29.684Z,31.29
2019-05-05T10:17:29.856Z,32.62
2019-05-05T10:18:30.040Z,34.71
2019-05-05T10:19:30.224Z,36.72
2019-05-05T10:20:30.397Z,36.90
2019-05-05T10:21:30.591Z,37.74
2019-05-05T10:22:30.770Z,38.22
2019-05-05T10:23:30.937Z,39.37
2019-05-05T10:24:31.316Z,39.35
2019-05-05T10:25:31.291Z,40.59
2019-05-05T10:26:31.464Z,41.34
2019-05-05T10:27:42.614Z,42.40
2019-05-05T10:28:33.957Z,42.68
2019-05-05T10:29:31.997Z,42.97
2019-05-05T10:30:32.162Z,42.11
2019-05-05T10:31:34.492Z,43.16
2019-05-05T10:32:32.500Z,42.30
2019-05-05T10:33:32.785Z,41.80
2019-05-05T10:34:33.513Z,39.77
2019-05-05T10:35:34.415Z,39.67
2019-05-05T10:36:33.723Z,40.25
2019-05-05T10:37:34.702Z,41.01
2019-05-05T10:38:34.145Z,40.44
2019-05-05T10:39:33.699Z,40.32
2019-05-05T10:40:34.030Z,41.78
2019-05-05T10:41:34.051Z,42.16
2019-05-05T10:42:34.282Z,42.07
2019-05-05T10:43:34.466Z,42.07
2019-05-05T10:44:34.518Z,41.32
2019-05-05T10:45:34.680Z,41.13
2019-05-05T10:46:34.849Z,40.84
2019-05-05T10:47:35.014Z,40.41
2019-05-05T10:48:35.198Z,39.65
2019-05-05T10:49:35.416Z,39.37
2019-05-05T10:50:35.539Z,39.56
2019-05-05T10:51:35.710Z,39.65
2019-05-05T10:52:36.850Z,39.65
2019-05-05T10:53:36.031Z,38.32
2019-05-05T10:54:44.076Z,37.82
2019-05-05T10:55:36.374Z,37.13
2019-05-05T10:56:36.547Z,36.84
2019-05-05T10:57:36.724Z,37.13
2019-05-05T10:58:36.897Z,37.23
2019-05-05T10:59:37.070Z,39.04
2019-05-05T11:00:37.239Z,39.12
2019-05-05T11:01:37.418Z,38.64
2019-05-05T11:02:37.587Z,38.93
2019-05-05T11:03:37.758Z,39.31
2019-05-05T11:04:37.930Z,38.81
2019-05-05T11:05:38.195Z,39.00
2019-05-05T11:06:38.241Z,40.34
2019-05-05T11:07:38.443Z,41.78
2019-05-05T11:08:38.807Z,41.68
2019-05-05T11:09:38.996Z,42.16
2019-05-05T11:10:38.903Z,43.48
2019-05-05T11:11:39.074Z,43.59
2019-05-05T11:12:39.244Z,44.07
2019-05-05T11:13:42.519Z,44.84
2019-05-05T11:14:39.816Z,44.55
2019-05-05T11:15:39.695Z,43.88
2019-05-05T11:16:39.881Z,43.12
2019-05-05T11:17:40.178Z,43.50
2019-05-05T11:18:40.217Z,44.12
2019-05-05T11:19:40.388Z,42.51
2019-05-05T11:20:40.747Z,41.52
2019-05-05T11:21:40.740Z,38.99
2019-05-05T11:22:40.919Z,37.47
2019-05-05T11:23:41.095Z,37.16
2019-05-05T11:24:54.218Z,37.24
2019-05-05T11:25:41.441Z,38.01
2019-05-05T11:26:41.643Z,38.18
2019-05-05T11:27:43.858Z,38.07
2019-05-05T11:28:41.945Z,39.01
2019-05-05T11:29:43.728Z,39.65
2019-05-05T11:30:42.283Z,39.65
2019-05-05T11:31:42.458Z,39.85
2019-05-05T11:32:44.082Z,39.92
2019-05-05T11:33:43.744Z,39.64
2019-05-05T11:34:44.246Z,40.41
2019-05-05T11:35:44.414Z,41.07
2019-05-05T11:36:43.851Z,40.95
2019-05-05T11:37:43.836Z,40.86
2019-05-05T11:38:44.560Z,40.75
2019-05-05T11:39:44.527Z,40.84
2019-05-05T11:40:44.090Z,41.89
2019-05-05T11:41:44.218Z,41.51
2019-05-05T11:42:44.377Z,41.32
2019-05-05T11:43:44.437Z,41.13
2019-05-05T11:44:47.347Z,41.03
2019-05-05T11:45:44.885Z,41.13
2019-05-05T11:46:44.925Z,41.51
2019-05-05T11:47:45.346Z,41.13
2019-05-05T11:48:45.232Z,41.03
2019-05-05T11:49:45.411Z,41.89
2019-05-05T11:50:45.588Z,41.74
2019-05-05T11:51:45.796Z,41.09
2019-05-05T11:52:45.958Z,39.08
2019-05-05T11:53:46.131Z,39.29
2019-05-05T11:54:46.308Z,38.24
2019-05-05T11:55:46.478Z,37.95
2019-05-05T11:56:46.652Z,36.88
2019-05-05T11:57:47.177Z,36.98
2019-05-05T11:58:47.022Z,37.15
2019-05-05T11:59:47.194Z,37.82
2019-05-05T12:00:47.369Z,37.82
2019-05-05T12:01:47.541Z,37.92
2019-05-05T12:02:47.981Z,38.87
2019-05-05T12:03:47.893Z,39.25
2019-05-05T12:04:48.059Z,40.69
2019-05-05T12:05:48.235Z,39.73
2019-05-05T12:06:48.408Z,39.92
2019-05-05T12:07:48.594Z,40.58
2019-05-05T12:08:49.103Z,40.86
2019-05-05T12:09:48.924Z,41.89
2019-05-05T12:10:49.090Z,42.27
2019-05-05T12:11:49.258Z,43.14
2019-05-05T12:12:49.427Z,43.23
2019-05-05T12:13:49.609Z,42.47
2019-05-05T12:14:49.796Z,43.90
2019-05-05T12:15:49.965Z,44.29
2019-05-05T12:16:50.132Z,43.33
2019-05-05T12:17:50.306Z,43.14
2019-05-05T12:18:50.479Z,43.14
2019-05-05T12:19:50.655Z,44.09
2019-05-05T12:20:50.814Z,43.43
2019-05-05T12:21:50.981Z,42.18
2019-05-05T12:22:51.143Z,42.35
2019-05-05T12:23:51.315Z,42.47
2019-05-05T12:24:53.401Z,41.97
2019-05-05T12:25:54.972Z,42.16
2019-05-05T12:26:54.122Z,42.44
2019-05-05T12:27:52.026Z,42.73
2019-05-05T12:28:54.429Z,42.73
2019-05-05T12:29:54.429Z,42.54
2019-05-05T12:30:52.480Z,42.66
2019-05-05T12:31:52.648Z,42.37
2019-05-05T12:32:55.234Z,43.43
2019-05-05T12:33:54.768Z,43.33
2019-05-05T12:34:53.871Z,42.47
2019-05-05T12:35:53.962Z,42.01
2019-05-05T12:36:54.037Z,41.72
2019-05-05T12:37:53.898Z,40.48
2019-05-05T12:38:54.623Z,40.19
2019-05-05T12:39:54.625Z,39.62
2019-05-05T12:40:54.271Z,40.67
2019-05-05T12:41:54.465Z,40.38
2019-05-05T12:42:54.622Z,40.58
2019-05-05T12:43:55.143Z,40.65
2019-05-05T12:44:54.964Z,40.48
2019-05-05T12:45:55.130Z,40.46
2019-05-05T12:46:55.305Z,40.55
2019-05-05T12:47:55.468Z,40.46
2019-05-05T12:48:55.651Z,40.94
2019-05-05T12:49:55.851Z,41.87
2019-05-05T12:50:56.019Z,42.16
2019-05-05T12:51:56.206Z,42.64
2019-05-05T12:52:56.380Z,43.21
2019-05-05T12:53:56.567Z,43.79
2019-05-05T12:54:56.711Z,43.71